A- A+ FrançaisEnglishEspañol中国

le plus proche LFBT Tarbes-Lourdes-PyrénéesLFDX Fumel-MontayralLFRD Dinard-Pleurtuit-St-Malo LFRW Avranches-Le-Val-St-Pere

manche à air

La météo aéronautique pour les pilotes, la préparation du vol avec les METAR (METeorological Aerodrome Report, message d'observation des conditions météorologiques pour l'aviation) et Les TAF (Terminal Aerodrome Forecast : message de prévision à court terme des conditions météorologiques pour l'aviation). Et les autres ressources comme les VAC (Visual Approch Chart) et les NOTAM (Notice To Airman) pour préprer les vols.

Aéroport Kalmar (Suède) / OACI ESMQ/ IATA KLR

L'altitude de l'aéroport Kalmar est de 5 m=16 ft. Il est situé à proximité de (Suède). La météo générale à 5 jours est disponible pour Kalmar situé à 5.2 km.

METAR de l'aéroport Kalmar - ESMQ

ESMQ 291620Z 22005KT 9999 FEW035 BKN054 BKN070 15/11 Q0994

Décodage du METAR de l'aéroport Kalmar (SE)

METAR émis par ESMQ le dimanche 29 septembre 2019 à 16:20 heure TU. Attention ce METAR est obsolète car il a été émis il y a 4 heure et 49 minutes.

La visibilité est de supérieure à 10 km=supérieure à 6.2 sm.

La température est de 15°C=59 °F et le point rosée est de 11°C=52 °F . Ce qui correspond à 77% d'humidité relative.

Le QNH est de 994 hPa=29.35 inHg

Vent de 5 kt=9 km/h, orienté à 220°.

Nuages : Quelques nuages à 3500 ft=1070 mètres. Couverture nuageuse fragmentée à 5400 ft=1650 mètres. Couverture nuageuse fragmentée à 7000 ft=2130 mètres.

TAF de l'aéroport Kalmar - ESMQ

ESMQ 291430Z 2915/2922 20008KT 9999 SCT018 TEMPO 2915/2922 SHRA BKN010 BKN025TCU

ESMQ 291430Z 2915/2922 20008KT 9999 nuages épars à 018 temporairement 2915/2922 SHRA couverture nuageuse fragmentée à 010 couverture nuageuse fragmentée à 025TCU

Aéroport à proximité de Kalmar

Météo générale à 5 jours à Kalmar (5.2 km)ESMB Aéroport Borglanda (30 km)ESMO Aéroport Oskarhamn (75 km)ESDF Aéroport Ronneby (78 km)ESMZ Aéroport Olanda (85 km)ESSF Aéroport Hultsfred (98 km)ESMX Aéroport Vaxjo Ronoberg (99 km)

Vue aérienne de l'aéroport Kalmar

NOTAM de l'aéroport Kalmar

Les NOTAM sont fournis sans aucune garantie de leur actualité. Le pilote est le seul responsable de la vérification de sa validité avant de l'utiliser opérationnellement pour préparer un vol ou l'utiliser lors de sa navigation.

Pas de NOTAM

Sources des données